sensor_id;sensor_type;location;lat;lon;timestamp;P1;durP1;ratioP1;P2;durP2;ratioP2
22644;SDS011;11489;50.834;6.752;2022-08-01T00:00:11;4.68;;;1.25;;
22644;SDS011;11489;50.834;6.752;2022-08-01T00:02:37;1.20;;;1.08;;
22644;SDS011;11489;50.834;6.752;2022-08-01T00:05:04;2.45;;;1.20;;
22644;SDS011;11489;50.834;6.752;2022-08-01T00:07:33;2.97;;;1.02;;
22644;SDS011;11489;50.834;6.752;2022-08-01T00:10:00;3.80;;;1.30;;
22644;SDS011;11489;50.834;6.752;2022-08-01T00:12:26;1.20;;;1.00;;
22644;SDS011;11489;50.834;6.752;2022-08-01T00:14:52;1.63;;;1.10;;
22644;SDS011;11489;50.834;6.752;2022-08-01T00:17:17;1.33;;;1.20;;
22644;SDS011;11489;50.834;6.752;2022-08-01T00:19:43;2.08;;;1.23;;
22644;SDS011;11489;50.834;6.752;2022-08-01T00:22:08;2.45;;;0.95;;
22644;SDS011;11489;50.834;6.752;2022-08-01T00:24:34;1.20;;;1.10;;
22644;SDS011;11489;50.834;6.752;2022-08-01T00:27:00;1.90;;;1.20;;
22644;SDS011;11489;50.834;6.752;2022-08-01T00:29:25;3.15;;;1.15;;
22644;SDS011;11489;50.834;6.752;2022-08-01T00:31:51;1.35;;;1.23;;
22644;SDS011;11489;50.834;6.752;2022-08-01T00:34:17;3.15;;;1.40;;
22644;SDS011;11489;50.834;6.752;2022-08-01T00:36:42;2.55;;;1.10;;
22644;SDS011;11489;50.834;6.752;2022-08-01T00:39:08;1.52;;;0.95;;
22644;SDS011;11489;50.834;6.752;2022-08-01T00:41:34;2.50;;;0.95;;
22644;SDS011;11489;50.834;6.752;2022-08-01T00:44:03;1.90;;;1.15;;
22644;SDS011;11489;50.834;6.752;2022-08-01T00:46:29;2.10;;;1.10;;
22644;SDS011;11489;50.834;6.752;2022-08-01T00:48:55;2.58;;;1.27;;
22644;SDS011;11489;50.834;6.752;2022-08-01T00:51:22;1.77;;;1.10;;
22644;SDS011;11489;50.834;6.752;2022-08-01T00:53:48;1.77;;;1.13;;
22644;SDS011;11489;50.834;6.752;2022-08-01T00:56:15;1.67;;;1.27;;
22644;SDS011;11489;50.834;6.752;2022-08-01T00:58:41;2.05;;;1.13;;
22644;SDS011;11489;50.834;6.752;2022-08-01T01:01:07;3.78;;;1.27;;
22644;SDS011;11489;50.834;6.752;2022-08-01T01:03:33;2.30;;;1.17;;
22644;SDS011;11489;50.834;6.752;2022-08-01T01:06:05;1.20;;;1.10;;
22644;SDS011;11489;50.834;6.752;2022-08-01T01:08:51;1.52;;;1.08;;
22644;SDS011;11489;50.834;6.752;2022-08-01T01:11:35;2.28;;;1.20;;
22644;SDS011;11489;50.834;6.752;2022-08-01T01:14:38;3.17;;;1.73;;
22644;SDS011;11489;50.834;6.752;2022-08-01T01:17:12;1.65;;;1.25;;
22644;SDS011;11489;50.834;6.752;2022-08-01T01:19:43;2.13;;;1.20;;
22644;SDS011;11489;50.834;6.752;2022-08-01T01:30:52;1.30;;;1.20;;
22644;SDS011;11489;50.834;6.752;2022-08-01T01:33:21;1.42;;;1.10;;
22644;SDS011;11489;50.834;6.752;2022-08-01T01:35:51;1.40;;;1.30;;
22644;SDS011;11489;50.834;6.752;2022-08-01T01:38:23;1.60;;;1.20;;
22644;SDS011;11489;50.834;6.752;2022-08-01T01:40:51;1.33;;;1.20;;
22644;SDS011;11489;50.834;6.752;2022-08-01T01:43:18;1.90;;;1.45;;
22644;SDS011;11489;50.834;6.752;2022-08-01T01:45:47;2.20;;;1.20;;
22644;SDS011;11489;50.834;6.752;2022-08-01T01:48:14;1.65;;;1.10;;
22644;SDS011;11489;50.834;6.752;2022-08-01T01:50:47;1.88;;;1.30;;
22644;SDS011;11489;50.834;6.752;2022-08-01T01:53:16;1.35;;;1.15;;
22644;SDS011;11489;50.834;6.752;2022-08-01T01:55:46;1.83;;;1.33;;
22644;SDS011;11489;50.834;6.752;2022-08-01T01:58:16;1.50;;;1.25;;
22644;SDS011;11489;50.834;6.752;2022-08-01T02:00:44;2.72;;;1.27;;
22644;SDS011;11489;50.834;6.752;2022-08-01T02:03:12;2.20;;;1.48;;
22644;SDS011;11489;50.834;6.752;2022-08-01T02:05:38;2.22;;;1.33;;
22644;SDS011;11489;50.834;6.752;2022-08-01T02:08:07;2.92;;;1.70;;
22644;SDS011;11489;50.834;6.752;2022-08-01T02:10:35;3.67;;;1.40;;
22644;SDS011;11489;50.834;6.752;2022-08-01T02:13:04;2.08;;;1.40;;
22644;SDS011;11489;50.834;6.752;2022-08-01T02:15:32;1.38;;;1.20;;
22644;SDS011;11489;50.834;6.752;2022-08-01T02:18:03;3.10;;;1.40;;
22644;SDS011;11489;50.834;6.752;2022-08-01T02:20:32;1.70;;;1.30;;
22644;SDS011;11489;50.834;6.752;2022-08-01T02:23:11;2.22;;;1.38;;
22644;SDS011;11489;50.834;6.752;2022-08-01T02:25:48;1.48;;;1.10;;
22644;SDS011;11489;50.834;6.752;2022-08-01T02:28:17;3.05;;;1.25;;
22644;SDS011;11489;50.834;6.752;2022-08-01T02:30:50;1.88;;;1.40;;
22644;SDS011;11489;50.834;6.752;2022-08-01T02:33:17;2.28;;;1.27;;
22644;SDS011;11489;50.834;6.752;2022-08-01T02:35:47;1.70;;;1.30;;
22644;SDS011;11489;50.834;6.752;2022-08-01T02:38:15;2.17;;;1.27;;
22644;SDS011;11489;50.834;6.752;2022-08-01T02:40:44;3.20;;;1.20;;
22644;SDS011;11489;50.834;6.752;2022-08-01T02:43:12;1.45;;;1.10;;
22644;SDS011;11489;50.834;6.752;2022-08-01T02:45:42;2.55;;;1.40;;
22644;SDS011;11489;50.834;6.752;2022-08-01T02:48:11;1.60;;;1.30;;
22644;SDS011;11489;50.834;6.752;2022-08-01T02:50:39;1.90;;;1.20;;
22644;SDS011;11489;50.834;6.752;2022-08-01T02:53:08;1.48;;;1.38;;
22644;SDS011;11489;50.834;6.752;2022-08-01T02:55:35;1.83;;;1.40;;
22644;SDS011;11489;50.834;6.752;2022-08-01T02:58:06;1.38;;;1.20;;
22644;SDS011;11489;50.834;6.752;2022-08-01T03:00:35;1.92;;;1.45;;
22644;SDS011;11489;50.834;6.752;2022-08-01T03:03:02;3.58;;;1.70;;
22644;SDS011;11489;50.834;6.752;2022-08-01T03:05:31;2.17;;;1.48;;
22644;SDS011;11489;50.834;6.752;2022-08-01T03:07:59;3.08;;;1.70;;
22644;SDS011;11489;50.834;6.752;2022-08-01T03:10:27;2.40;;;1.70;;
22644;SDS011;11489;50.834;6.752;2022-08-01T03:12:54;2.28;;;1.50;;
22644;SDS011;11489;50.834;6.752;2022-08-01T03:15:22;1.77;;;1.45;;
22644;SDS011;11489;50.834;6.752;2022-08-01T03:17:50;4.63;;;1.60;;
22644;SDS011;11489;50.834;6.752;2022-08-01T03:20:17;2.72;;;1.70;;
22644;SDS011;11489;50.834;6.752;2022-08-01T03:22:45;3.42;;;1.80;;
22644;SDS011;11489;50.834;6.752;2022-08-01T03:25:12;4.30;;;2.00;;
22644;SDS011;11489;50.834;6.752;2022-08-01T03:27:40;4.60;;;1.63;;
22644;SDS011;11489;50.834;6.752;2022-08-01T03:30:08;7.10;;;1.80;;
22644;SDS011;11489;50.834;6.752;2022-08-01T03:32:35;3.08;;;1.67;;
22644;SDS011;11489;50.834;6.752;2022-08-01T03:35:01;2.08;;;1.50;;
22644;SDS011;11489;50.834;6.752;2022-08-01T03:37:28;3.85;;;1.40;;
22644;SDS011;11489;50.834;6.752;2022-08-01T03:40:07;2.00;;;1.48;;
22644;SDS011;11489;50.834;6.752;2022-08-01T03:42:47;1.88;;;1.25;;
22644;SDS011;11489;50.834;6.752;2022-08-01T03:45:19;3.17;;;1.45;;
22644;SDS011;11489;50.834;6.752;2022-08-01T03:48:10;2.95;;;1.60;;
22644;SDS011;11489;50.834;6.752;2022-08-01T03:50:41;3.33;;;1.73;;
22644;SDS011;11489;50.834;6.752;2022-08-01T03:53:08;2.08;;;1.77;;
22644;SDS011;11489;50.834;6.752;2022-08-01T03:55:36;2.92;;;1.83;;
22644;SDS011;11489;50.834;6.752;2022-08-01T03:58:04;3.60;;;2.20;;
22644;SDS011;11489;50.834;6.752;2022-08-01T04:00:30;3.90;;;2.05;;
22644;SDS011;11489;50.834;6.752;2022-08-01T04:02:56;2.72;;;1.98;;
22644;SDS011;11489;50.834;6.752;2022-08-01T04:05:23;3.33;;;2.15;;
22644;SDS011;11489;50.834;6.752;2022-08-01T04:07:49;2.58;;;2.00;;
22644;SDS011;11489;50.834;6.752;2022-08-01T04:10:27;3.38;;;2.25;;
22644;SDS011;11489;50.834;6.752;2022-08-01T04:12:53;3.40;;;2.20;;
22644;SDS011;11489;50.834;6.752;2022-08-01T04:15:19;3.65;;;1.85;;
22644;SDS011;11489;50.834;6.752;2022-08-01T04:17:45;3.55;;;2.40;;
22644;SDS011;11489;50.834;6.752;2022-08-01T04:20:11;3.55;;;2.08;;
22644;SDS011;11489;50.834;6.752;2022-08-01T04:22:37;6.47;;;2.50;;
22644;SDS011;11489;50.834;6.752;2022-08-01T04:25:11;3.58;;;2.50;;
22644;SDS011;11489;50.834;6.752;2022-08-01T04:27:53;3.60;;;2.25;;
22644;SDS011;11489;50.834;6.752;2022-08-01T04:30:22;5.35;;;2.60;;
22644;SDS011;11489;50.834;6.752;2022-08-01T04:32:55;3.15;;;2.47;;
22644;SDS011;11489;50.834;6.752;2022-08-01T04:35:22;3.67;;;2.13;;
22644;SDS011;11489;50.834;6.752;2022-08-01T04:37:50;3.00;;;2.42;;
22644;SDS011;11489;50.834;6.752;2022-08-01T04:40:17;5.78;;;2.40;;
22644;SDS011;11489;50.834;6.752;2022-08-01T04:42:47;4.07;;;2.53;;
22644;SDS011;11489;50.834;6.752;2022-08-01T04:45:14;3.42;;;2.65;;
22644;SDS011;11489;50.834;6.752;2022-08-01T04:47:40;4.65;;;2.72;;
22644;SDS011;11489;50.834;6.752;2022-08-01T04:50:08;3.88;;;2.30;;
22644;SDS011;11489;50.834;6.752;2022-08-01T04:52:35;4.60;;;2.40;;
22644;SDS011;11489;50.834;6.752;2022-08-01T04:55:02;3.20;;;2.38;;
22644;SDS011;11489;50.834;6.752;2022-08-01T04:57:32;2.97;;;2.40;;
22644;SDS011;11489;50.834;6.752;2022-08-01T05:00:03;5.45;;;2.70;;
22644;SDS011;11489;50.834;6.752;2022-08-01T05:02:29;2.90;;;2.38;;
22644;SDS011;11489;50.834;6.752;2022-08-01T05:04:55;5.38;;;2.58;;
22644;SDS011;11489;50.834;6.752;2022-08-01T05:07:21;5.05;;;2.60;;
22644;SDS011;11489;50.834;6.752;2022-08-01T05:09:47;5.32;;;2.88;;
22644;SDS011;11489;50.834;6.752;2022-08-01T05:12:13;4.70;;;2.42;;
22644;SDS011;11489;50.834;6.752;2022-08-01T05:14:39;4.22;;;2.80;;
22644;SDS011;11489;50.834;6.752;2022-08-01T05:17:05;5.47;;;2.40;;
22644;SDS011;11489;50.834;6.752;2022-08-01T05:19:35;3.33;;;2.22;;
22644;SDS011;11489;50.834;6.752;2022-08-01T05:22:02;5.68;;;2.25;;
22644;SDS011;11489;50.834;6.752;2022-08-01T05:24:33;5.57;;;2.50;;
22644;SDS011;11489;50.834;6.752;2022-08-01T05:27:00;3.70;;;2.53;;
22644;SDS011;11489;50.834;6.752;2022-08-01T05:29:26;3.78;;;2.50;;
22644;SDS011;11489;50.834;6.752;2022-08-01T05:31:52;3.58;;;2.90;;
22644;SDS011;11489;50.834;6.752;2022-08-01T05:34:19;4.55;;;3.08;;
22644;SDS011;11489;50.834;6.752;2022-08-01T05:36:45;4.57;;;2.97;;
22644;SDS011;11489;50.834;6.752;2022-08-01T05:39:12;6.25;;;3.10;;
22644;SDS011;11489;50.834;6.752;2022-08-01T05:41:38;5.45;;;3.25;;
22644;SDS011;11489;50.834;6.752;2022-08-01T05:44:05;6.00;;;3.80;;
22644;SDS011;11489;50.834;6.752;2022-08-01T05:46:31;7.80;;;4.07;;
22644;SDS011;11489;50.834;6.752;2022-08-01T05:48:57;8.52;;;4.47;;
22644;SDS011;11489;50.834;6.752;2022-08-01T05:51:24;11.02;;;5.65;;
22644;SDS011;11489;50.834;6.752;2022-08-01T05:53:50;7.68;;;5.22;;
22644;SDS011;11489;50.834;6.752;2022-08-01T05:56:16;7.95;;;5.63;;
22644;SDS011;11489;50.834;6.752;2022-08-01T05:58:42;11.38;;;5.30;;
22644;SDS011;11489;50.834;6.752;2022-08-01T06:01:08;10.90;;;4.93;;
22644;SDS011;11489;50.834;6.752;2022-08-01T06:03:34;8.00;;;5.00;;
22644;SDS011;11489;50.834;6.752;2022-08-01T06:06:00;9.75;;;4.65;;
22644;SDS011;11489;50.834;6.752;2022-08-01T06:08:26;7.55;;;4.43;;
22644;SDS011;11489;50.834;6.752;2022-08-01T06:10:52;7.95;;;4.18;;
22644;SDS011;11489;50.834;6.752;2022-08-01T06:13:18;7.25;;;3.95;;
22644;SDS011;11489;50.834;6.752;2022-08-01T06:15:44;6.47;;;4.00;;
22644;SDS011;11489;50.834;6.752;2022-08-01T06:18:11;6.20;;;3.85;;
22644;SDS011;11489;50.834;6.752;2022-08-01T06:20:37;5.65;;;3.92;;
22644;SDS011;11489;50.834;6.752;2022-08-01T06:23:02;6.80;;;3.80;;
22644;SDS011;11489;50.834;6.752;2022-08-01T06:25:28;5.85;;;3.60;;
22644;SDS011;11489;50.834;6.752;2022-08-01T06:27:54;5.15;;;3.90;;
22644;SDS011;11489;50.834;6.752;2022-08-01T06:30:20;5.85;;;3.92;;
22644;SDS011;11489;50.834;6.752;2022-08-01T06:32:46;5.90;;;3.95;;
22644;SDS011;11489;50.834;6.752;2022-08-01T06:35:12;5.63;;;4.07;;
22644;SDS011;11489;50.834;6.752;2022-08-01T06:37:39;8.15;;;3.85;;
22644;SDS011;11489;50.834;6.752;2022-08-01T06:40:05;4.03;;;3.38;;
22644;SDS011;11489;50.834;6.752;2022-08-01T06:42:33;4.90;;;3.88;;
22644;SDS011;11489;50.834;6.752;2022-08-01T06:45:03;4.65;;;3.63;;
22644;SDS011;11489;50.834;6.752;2022-08-01T06:47:38;6.93;;;3.60;;
22644;SDS011;11489;50.834;6.752;2022-08-01T06:50:05;4.65;;;3.38;;
22644;SDS011;11489;50.834;6.752;2022-08-01T06:52:32;6.10;;;3.70;;
22644;SDS011;11489;50.834;6.752;2022-08-01T06:54:58;6.90;;;3.80;;
22644;SDS011;11489;50.834;6.752;2022-08-01T06:57:24;4.43;;;3.47;;
22644;SDS011;11489;50.834;6.752;2022-08-01T06:59:50;7.63;;;3.83;;
22644;SDS011;11489;50.834;6.752;2022-08-01T07:02:16;5.25;;;3.58;;
22644;SDS011;11489;50.834;6.752;2022-08-01T07:04:42;6.03;;;4.30;;
22644;SDS011;11489;50.834;6.752;2022-08-01T07:07:08;5.22;;;3.80;;
22644;SDS011;11489;50.834;6.752;2022-08-01T07:09:33;9.63;;;4.05;;
22644;SDS011;11489;50.834;6.752;2022-08-01T07:11:59;6.22;;;3.75;;
22644;SDS011;11489;50.834;6.752;2022-08-01T07:14:25;4.57;;;3.90;;
22644;SDS011;11489;50.834;6.752;2022-08-01T07:16:51;4.60;;;3.65;;
22644;SDS011;11489;50.834;6.752;2022-08-01T07:19:17;4.90;;;3.90;;
22644;SDS011;11489;50.834;6.752;2022-08-01T07:21:43;5.82;;;4.00;;
22644;SDS011;11489;50.834;6.752;2022-08-01T07:24:10;5.82;;;3.90;;
22644;SDS011;11489;50.834;6.752;2022-08-01T07:26:41;7.47;;;3.88;;
22644;SDS011;11489;50.834;6.752;2022-08-01T07:29:07;5.38;;;3.70;;
22644;SDS011;11489;50.834;6.752;2022-08-01T07:31:33;5.32;;;3.80;;
22644;SDS011;11489;50.834;6.752;2022-08-01T07:33:59;4.55;;;3.50;;
22644;SDS011;11489;50.834;6.752;2022-08-01T07:36:24;6.28;;;3.90;;
22644;SDS011;11489;50.834;6.752;2022-08-01T07:38:50;4.00;;;3.45;;
22644;SDS011;11489;50.834;6.752;2022-08-01T07:41:16;5.82;;;3.45;;
22644;SDS011;11489;50.834;6.752;2022-08-01T07:43:42;5.13;;;3.72;;
22644;SDS011;11489;50.834;6.752;2022-08-01T07:46:07;5.22;;;3.60;;
22644;SDS011;11489;50.834;6.752;2022-08-01T07:48:33;4.25;;;3.60;;
22644;SDS011;11489;50.834;6.752;2022-08-01T07:50:59;3.53;;;3.20;;
22644;SDS011;11489;50.834;6.752;2022-08-01T07:53:24;5.22;;;3.60;;
22644;SDS011;11489;50.834;6.752;2022-08-01T07:55:50;3.50;;;3.15;;
22644;SDS011;11489;50.834;6.752;2022-08-01T07:58:16;3.65;;;3.05;;
22644;SDS011;11489;50.834;6.752;2022-08-01T08:00:42;8.23;;;3.67;;
22644;SDS011;11489;50.834;6.752;2022-08-01T08:03:08;4.05;;;3.08;;
22644;SDS011;11489;50.834;6.752;2022-08-01T08:05:34;3.63;;;3.20;;
22644;SDS011;11489;50.834;6.752;2022-08-01T08:08:07;3.33;;;3.03;;
22644;SDS011;11489;50.834;6.752;2022-08-01T08:10:35;4.60;;;3.08;;
22644;SDS011;11489;50.834;6.752;2022-08-01T08:13:01;4.25;;;3.08;;
22644;SDS011;11489;50.834;6.752;2022-08-01T08:15:28;4.78;;;3.03;;
22644;SDS011;11489;50.834;6.752;2022-08-01T08:17:54;5.95;;;3.15;;
22644;SDS011;11489;50.834;6.752;2022-08-01T08:20:20;2.83;;;2.63;;
22644;SDS011;11489;50.834;6.752;2022-08-01T08:22:54;6.97;;;3.00;;
22644;SDS011;11489;50.834;6.752;2022-08-01T08:25:20;3.75;;;3.00;;
22644;SDS011;11489;50.834;6.752;2022-08-01T08:27:47;4.13;;;2.45;;
22644;SDS011;11489;50.834;6.752;2022-08-01T08:30:13;4.43;;;3.05;;
22644;SDS011;11489;50.834;6.752;2022-08-01T08:32:39;3.33;;;2.80;;
22644;SDS011;11489;50.834;6.752;2022-08-01T08:35:05;3.10;;;2.53;;
22644;SDS011;11489;50.834;6.752;2022-08-01T08:37:32;5.45;;;2.70;;
22644;SDS011;11489;50.834;6.752;2022-08-01T08:39:59;5.85;;;3.10;;
22644;SDS011;11489;50.834;6.752;2022-08-01T08:42:25;4.80;;;2.78;;
22644;SDS011;11489;50.834;6.752;2022-08-01T08:44:51;3.28;;;2.42;;
22644;SDS011;11489;50.834;6.752;2022-08-01T08:47:19;2.65;;;2.13;;
22644;SDS011;11489;50.834;6.752;2022-08-01T08:49:47;2.38;;;2.17;;
22644;SDS011;11489;50.834;6.752;2022-08-01T08:52:17;3.97;;;2.15;;
22644;SDS011;11489;50.834;6.752;2022-08-01T08:54:45;2.55;;;2.35;;
22644;SDS011;11489;50.834;6.752;2022-08-01T08:57:13;6.85;;;2.72;;
22644;SDS011;11489;50.834;6.752;2022-08-01T08:59:39;6.78;;;2.58;;
22644;SDS011;11489;50.834;6.752;2022-08-01T09:02:07;4.65;;;2.45;;
22644;SDS011;11489;50.834;6.752;2022-08-01T09:04:35;2.67;;;2.25;;
22644;SDS011;11489;50.834;6.752;2022-08-01T09:07:01;3.97;;;2.25;;
22644;SDS011;11489;50.834;6.752;2022-08-01T09:09:29;2.25;;;2.10;;
22644;SDS011;11489;50.834;6.752;2022-08-01T09:11:55;2.95;;;2.40;;
22644;SDS011;11489;50.834;6.752;2022-08-01T09:14:21;4.20;;;2.30;;
22644;SDS011;11489;50.834;6.752;2022-08-01T09:16:58;4.95;;;2.65;;
22644;SDS011;11489;50.834;6.752;2022-08-01T09:19:33;2.60;;;2.40;;
22644;SDS011;11489;50.834;6.752;2022-08-01T09:22:11;4.22;;;2.42;;
22644;SDS011;11489;50.834;6.752;2022-08-01T09:24:38;2.60;;;2.40;;
22644;SDS011;11489;50.834;6.752;2022-08-01T09:27:16;4.45;;;2.45;;
22644;SDS011;11489;50.834;6.752;2022-08-01T09:29:43;2.78;;;2.40;;
22644;SDS011;11489;50.834;6.752;2022-08-01T09:32:09;4.32;;;2.67;;
22644;SDS011;11489;50.834;6.752;2022-08-01T09:34:35;6.18;;;2.65;;
22644;SDS011;11489;50.834;6.752;2022-08-01T09:37:02;2.97;;;2.40;;
22644;SDS011;11489;50.834;6.752;2022-08-01T09:39:29;2.85;;;2.55;;
22644;SDS011;11489;50.834;6.752;2022-08-01T09:41:57;4.60;;;2.63;;
22644;SDS011;11489;50.834;6.752;2022-08-01T09:44:40;3.20;;;2.33;;
22644;SDS011;11489;50.834;6.752;2022-08-01T09:47:07;4.72;;;2.63;;
22644;SDS011;11489;50.834;6.752;2022-08-01T09:49:34;4.07;;;3.15;;
22644;SDS011;11489;50.834;6.752;2022-08-01T09:52:15;3.33;;;2.78;;
22644;SDS011;11489;50.834;6.752;2022-08-01T09:54:53;4.00;;;2.80;;
22644;SDS011;11489;50.834;6.752;2022-08-01T09:57:21;3.63;;;2.60;;
22644;SDS011;11489;50.834;6.752;2022-08-01T09:59:48;2.72;;;2.42;;
22644;SDS011;11489;50.834;6.752;2022-08-01T10:02:31;5.43;;;3.05;;
22644;SDS011;11489;50.834;6.752;2022-08-01T10:04:57;4.63;;;2.67;;
22644;SDS011;11489;50.834;6.752;2022-08-01T10:07:24;3.90;;;2.28;;
22644;SDS011;11489;50.834;6.752;2022-08-01T10:09:49;3.13;;;2.15;;
22644;SDS011;11489;50.834;6.752;2022-08-01T10:12:18;2.60;;;2.13;;
22644;SDS011;11489;50.834;6.752;2022-08-01T10:14:53;2.92;;;2.28;;
22644;SDS011;11489;50.834;6.752;2022-08-01T10:18:15;2.30;;;2.10;;
22644;SDS011;11489;50.834;6.752;2022-08-01T10:20:41;3.58;;;2.03;;
22644;SDS011;11489;50.834;6.752;2022-08-01T10:23:07;2.63;;;2.40;;
22644;SDS011;11489;50.834;6.752;2022-08-01T10:25:36;3.03;;;2.40;;
22644;SDS011;11489;50.834;6.752;2022-08-01T10:28:08;2.55;;;2.30;;
22644;SDS011;11489;50.834;6.752;2022-08-01T10:30:41;2.25;;;2.05;;
22644;SDS011;11489;50.834;6.752;2022-08-01T10:33:08;4.18;;;2.20;;
22644;SDS011;11489;50.834;6.752;2022-08-01T10:35:35;2.33;;;2.00;;
22644;SDS011;11489;50.834;6.752;2022-08-01T10:38:01;3.55;;;2.40;;
22644;SDS011;11489;50.834;6.752;2022-08-01T10:40:28;17.80;;;2.90;;
22644;SDS011;11489;50.834;6.752;2022-08-01T10:42:54;2.95;;;2.53;;
22644;SDS011;11489;50.834;6.752;2022-08-01T10:45:21;3.50;;;2.80;;
22644;SDS011;11489;50.834;6.752;2022-08-01T10:50:32;5.22;;;2.90;;
22644;SDS011;11489;50.834;6.752;2022-08-01T10:53:15;2.70;;;2.47;;
22644;SDS011;11489;50.834;6.752;2022-08-01T10:58:33;2.25;;;2.05;;
22644;SDS011;11489;50.834;6.752;2022-08-01T11:03:40;6.95;;;3.10;;
22644;SDS011;11489;50.834;6.752;2022-08-01T11:06:07;4.07;;;2.63;;
22644;SDS011;11489;50.834;6.752;2022-08-01T11:08:52;3.28;;;2.55;;
22644;SDS011;11489;50.834;6.752;2022-08-01T11:11:19;3.10;;;2.70;;
22644;SDS011;11489;50.834;6.752;2022-08-01T11:16:37;2.97;;;2.67;;
22644;SDS011;11489;50.834;6.752;2022-08-01T11:19:04;2.45;;;2.15;;
22644;SDS011;11489;50.834;6.752;2022-08-01T11:27:29;2.88;;;2.58;;
22644;SDS011;11489;50.834;6.752;2022-08-01T11:30:29;2.95;;;2.60;;
22644;SDS011;11489;50.834;6.752;2022-08-01T11:35:16;4.45;;;2.60;;
22644;SDS011;11489;50.834;6.752;2022-08-01T11:37:42;4.75;;;2.70;;
22644;SDS011;11489;50.834;6.752;2022-08-01T11:42:50;3.35;;;2.83;;
22644;SDS011;11489;50.834;6.752;2022-08-01T11:45:52;4.22;;;2.40;;
22644;SDS011;11489;50.834;6.752;2022-08-01T11:48:23;6.15;;;2.58;;
22644;SDS011;11489;50.834;6.752;2022-08-01T11:50:51;2.60;;;2.40;;
22644;SDS011;11489;50.834;6.752;2022-08-01T11:53:18;2.72;;;2.20;;
22644;SDS011;11489;50.834;6.752;2022-08-01T11:55:51;2.63;;;2.13;;
22644;SDS011;11489;50.834;6.752;2022-08-01T11:58:22;2.20;;;1.98;;
22644;SDS011;11489;50.834;6.752;2022-08-01T12:00:50;2.90;;;1.83;;
22644;SDS011;11489;50.834;6.752;2022-08-01T12:03:22;2.20;;;1.90;;
22644;SDS011;11489;50.834;6.752;2022-08-01T12:05:49;1.77;;;1.67;;
22644;SDS011;11489;50.834;6.752;2022-08-01T12:08:23;3.05;;;1.60;;
22644;SDS011;11489;50.834;6.752;2022-08-01T12:10:51;5.10;;;1.80;;
22644;SDS011;11489;50.834;6.752;2022-08-01T12:13:16;3.13;;;2.00;;
22644;SDS011;11489;50.834;6.752;2022-08-01T12:15:46;12.95;;;2.08;;
22644;SDS011;11489;50.834;6.752;2022-08-01T12:18:12;4.07;;;1.90;;
22644;SDS011;11489;50.834;6.752;2022-08-01T12:20:39;2.90;;;1.80;;
22644;SDS011;11489;50.834;6.752;2022-08-01T12:23:13;2.25;;;2.05;;
22644;SDS011;11489;50.834;6.752;2022-08-01T12:25:41;5.68;;;2.05;;
22644;SDS011;11489;50.834;6.752;2022-08-01T12:28:10;2.45;;;2.00;;
22644;SDS011;11489;50.834;6.752;2022-08-01T12:30:40;2.30;;;2.10;;
22644;SDS011;11489;50.834;6.752;2022-08-01T12:33:07;4.22;;;2.20;;
22644;SDS011;11489;50.834;6.752;2022-08-01T12:35:35;2.70;;;2.30;;
22644;SDS011;11489;50.834;6.752;2022-08-01T12:38:03;3.15;;;2.22;;
22644;SDS011;11489;50.834;6.752;2022-08-01T12:40:32;2.20;;;2.00;;
22644;SDS011;11489;50.834;6.752;2022-08-01T12:43:06;3.72;;;2.10;;
22644;SDS011;11489;50.834;6.752;2022-08-01T12:48:08;2.70;;;1.90;;
22644;SDS011;11489;50.834;6.752;2022-08-01T12:50:37;3.45;;;1.88;;
22644;SDS011;11489;50.834;6.752;2022-08-01T12:53:04;2.20;;;1.92;;
22644;SDS011;11489;50.834;6.752;2022-08-01T12:55:30;4.47;;;2.30;;
22644;SDS011;11489;50.834;6.752;2022-08-01T12:58:09;2.30;;;2.00;;
22644;SDS011;11489;50.834;6.752;2022-08-01T13:00:37;4.82;;;1.70;;
22644;SDS011;11489;50.834;6.752;2022-08-01T13:03:06;4.30;;;2.15;;
22644;SDS011;11489;50.834;6.752;2022-08-01T13:08:23;2.08;;;1.75;;
22644;SDS011;11489;50.834;6.752;2022-08-01T13:11:04;3.80;;;2.60;;
22644;SDS011;11489;50.834;6.752;2022-08-01T13:13:38;3.45;;;2.17;;
22644;SDS011;11489;50.834;6.752;2022-08-01T13:16:06;3.50;;;2.20;;
22644;SDS011;11489;50.834;6.752;2022-08-01T13:18:33;2.03;;;1.88;;
22644;SDS011;11489;50.834;6.752;2022-08-01T13:23:38;2.45;;;2.03;;
22644;SDS011;11489;50.834;6.752;2022-08-01T13:26:04;1.83;;;1.58;;
22644;SDS011;11489;50.834;6.752;2022-08-01T13:28:30;2.70;;;1.80;;
22644;SDS011;11489;50.834;6.752;2022-08-01T13:33:42;1.92;;;1.60;;
22644;SDS011;11489;50.834;6.752;2022-08-01T13:36:10;1.55;;;1.45;;
22644;SDS011;11489;50.834;6.752;2022-08-01T13:38:36;1.98;;;1.70;;
22644;SDS011;11489;50.834;6.752;2022-08-01T13:41:21;2.83;;;1.50;;
22644;SDS011;11489;50.834;6.752;2022-08-01T13:43:46;1.85;;;1.63;;
22644;SDS011;11489;50.834;6.752;2022-08-01T13:46:12;2.65;;;1.70;;
22644;SDS011;11489;50.834;6.752;2022-08-01T13:48:38;1.85;;;1.52;;
22644;SDS011;11489;50.834;6.752;2022-08-01T13:51:04;1.55;;;1.45;;
22644;SDS011;11489;50.834;6.752;2022-08-01T13:53:29;2.22;;;1.60;;
22644;SDS011;11489;50.834;6.752;2022-08-01T13:55:55;1.92;;;1.73;;
22644;SDS011;11489;50.834;6.752;2022-08-01T13:58:22;2.17;;;1.50;;
22644;SDS011;11489;50.834;6.752;2022-08-01T14:00:48;1.88;;;1.50;;
22644;SDS011;11489;50.834;6.752;2022-08-01T14:03:13;1.77;;;1.55;;
22644;SDS011;11489;50.834;6.752;2022-08-01T14:05:39;1.95;;;1.73;;
22644;SDS011;11489;50.834;6.752;2022-08-01T14:08:05;3.40;;;1.52;;
22644;SDS011;11489;50.834;6.752;2022-08-01T14:10:31;1.60;;;1.50;;
22644;SDS011;11489;50.834;6.752;2022-08-01T14:12:57;2.22;;;1.48;;
22644;SDS011;11489;50.834;6.752;2022-08-01T14:15:23;1.80;;;1.55;;
22644;SDS011;11489;50.834;6.752;2022-08-01T14:17:49;3.00;;;1.38;;
22644;SDS011;11489;50.834;6.752;2022-08-01T14:20:15;3.85;;;1.45;;
22644;SDS011;11489;50.834;6.752;2022-08-01T14:22:45;2.38;;;1.40;;
22644;SDS011;11489;50.834;6.752;2022-08-01T14:25:11;2.88;;;1.42;;
22644;SDS011;11489;50.834;6.752;2022-08-01T14:27:37;1.50;;;1.40;;
22644;SDS011;11489;50.834;6.752;2022-08-01T14:30:05;1.60;;;1.50;;
22644;SDS011;11489;50.834;6.752;2022-08-01T14:32:31;1.83;;;1.60;;
22644;SDS011;11489;50.834;6.752;2022-08-01T14:34:58;1.73;;;1.50;;
22644;SDS011;11489;50.834;6.752;2022-08-01T14:37:25;1.80;;;1.70;;
22644;SDS011;11489;50.834;6.752;2022-08-01T14:39:51;1.90;;;1.23;;
22644;SDS011;11489;50.834;6.752;2022-08-01T14:42:16;2.95;;;1.50;;
22644;SDS011;11489;50.834;6.752;2022-08-01T14:44:42;1.10;;;1.10;;
22644;SDS011;11489;50.834;6.752;2022-08-01T14:47:08;1.83;;;1.50;;
22644;SDS011;11489;50.834;6.752;2022-08-01T14:49:33;2.17;;;1.40;;
22644;SDS011;11489;50.834;6.752;2022-08-01T14:51:59;1.70;;;1.05;;
22644;SDS011;11489;50.834;6.752;2022-08-01T14:54:25;1.23;;;1.13;;
22644;SDS011;11489;50.834;6.752;2022-08-01T14:56:50;3.20;;;1.50;;
22644;SDS011;11489;50.834;6.752;2022-08-01T14:59:18;1.52;;;1.42;;
22644;SDS011;11489;50.834;6.752;2022-08-01T15:01:44;1.70;;;1.40;;
22644;SDS011;11489;50.834;6.752;2022-08-01T15:04:10;1.60;;;1.50;;
22644;SDS011;11489;50.834;6.752;2022-08-01T15:06:36;1.60;;;1.30;;
22644;SDS011;11489;50.834;6.752;2022-08-01T15:09:02;1.50;;;1.38;;
22644;SDS011;11489;50.834;6.752;2022-08-01T15:11:27;1.42;;;1.33;;
22644;SDS011;11489;50.834;6.752;2022-08-01T15:13:53;1.95;;;1.30;;
22644;SDS011;11489;50.834;6.752;2022-08-01T15:16:38;1.90;;;1.20;;
22644;SDS011;11489;50.834;6.752;2022-08-01T15:19:03;1.48;;;1.20;;
22644;SDS011;11489;50.834;6.752;2022-08-01T15:21:29;1.10;;;1.10;;
22644;SDS011;11489;50.834;6.752;2022-08-01T15:23:55;2.70;;;1.23;;
22644;SDS011;11489;50.834;6.752;2022-08-01T15:26:20;2.25;;;1.45;;
22644;SDS011;11489;50.834;6.752;2022-08-01T15:28:46;1.80;;;1.42;;
22644;SDS011;11489;50.834;6.752;2022-08-01T15:31:12;1.55;;;1.45;;
22644;SDS011;11489;50.834;6.752;2022-08-01T15:33:37;1.70;;;1.35;;
22644;SDS011;11489;50.834;6.752;2022-08-01T15:36:04;1.40;;;1.30;;